Main page
METAR-TAF:

METAR-TAF

Airports :

Multan International Airport

Multan, Pakistan

latitude: 30-12-12N, longitude: 71-25-09E, elevation: 122 m

Current weather observation

The report was made 17 minutes ago, at 20:30 UTC
Calm wind
Temperature 22°C
Humidity 73%
Pressure 1015 hPa
Visibility: 4000 m
smoke

METAR: OPMT 282030Z 00000KT 4000 FU NSC 22/17 Q1015 NOSIG

Time: 01:47 (20:47 UTC)

Forecast

The report was made 5 hours and 2 minutes ago, at 15:45 UTC
Forecast valid from 28 at 18 UTC to 29 at 12 UTC
Wind 5 kt from the Southeast
Visibility: 3500 m
smoke
Probability 30% :
Temporary
from 29 at 02 UTC to 29 at 05 UTC
Wind kt from the North
Visibility: 1000 m
Few clouds at a height of 12000 ft
mist
From 29 at 0700 UTC
Wind 10 kt from the Southwest
Visibility: 5000 m
haze

TAF: OPMT 281545Z 2818/2912 13005KT 3500 FU NSC TN17/2901Z TX32/2901Z PROB30 TEMPO 2902/2905 00000KT 1000 BR FEW120 FM290700 23010KT 5000 HZ NSC

Weather observations and forecasts of more than 4000 airports (METAR and TAF reports).

The available stations are represented by yellow and red dots on the map.

Hover mouse over dot to see the name of the station.

Then click to see weather observations and forecasts.

To change the map : click on the green buttons with a black cross to zoom in, on the green button with a dash to zoom out, or on the green arrows for adjacent maps.


METAR-TAF: